Sonic Adventure (DX): Overall Rankings

Records: Times | Rings | Scores | Races | Bosses | Freestyle
Leaders: Times | Rings | Scores | Races | Bosses | Freestyle | Overall
Rank Player Percent Points Order Asc Date
1 Sonicspeedruner 98.1% 318 06-29-17
2 Gamepro011 98.0% 332 06-29-17
3 DarkPolarNight 96.9% 515 06-29-17
4 Jawzun 93.3% 1140 06-29-17
5 Dashjump 91.9% 1383 06-29-17
6 DarkspinesSonic 90.0% 1699 06-29-17
7 Avento128bits 89.8% 1734 06-29-17
8 ike6252 89.7% 1764 06-29-17
9 F-Man 87.8% 2077 06-29-17
10 Coolfansonic 87.4% 2157 06-29-17
11 HyperSonic7701 84.5% 2640 06-29-17
12 TheRealShadnic 83.9% 2743 06-29-17
13 yoshifan 82.9% 2923 06-29-17
14 frankoredstrato 82.5% 2987 06-29-17
15 francisco 81.6% 3150 06-29-17
16 Marth 81.3% 3193 06-29-17
17 InferSaime 80.2% 3391 06-29-17
18 PfoSonic 79.7% 3474 06-29-17
19 Paragod 79.2% 3554 06-29-17
20 THC98 78.4% 3693 06-29-17
21 Stefan 76.0% 4103 06-29-17
22 RPGnutter 73.9% 4469 06-29-17
23 bertin 73.8% 4488 06-29-17
24 sonicam 71.7% 4845 06-29-17
25 drminus 70.2% 5092 06-29-17
25 xXMegaManXx 70.2% 5092 06-29-17
27 Combo 65.8% 5846 06-29-17
28 chainchumper 65.8% 5860 06-29-17
29 chaos shadow 65.3% 5946 06-29-17
30 SkyLights 64.7% 6047 06-29-17
31 Diamond 62.5% 6412 06-29-17
32 Auriman1 60.6% 6739 06-29-17
33 GerbilSoft 60.6% 6748 06-29-17
34 OmegaDJ 60.6% 6749 06-29-17
35 magnum12 59.7% 6896 06-29-17
36 Thorn 57.5% 7266 06-29-17
37 P1 Pause 57.4% 7293 06-29-17
38 mike89 56.3% 7486 06-29-17
39 Groudon199 54.3% 7823 06-29-17
40 Dave Cramer 54.3% 7829 06-29-17
41 Shadow Jacky 53.2% 8003 06-29-17
42 Parax 53.2% 8017 06-29-17
43 Psymar 48.1% 8889 06-29-17
44 Arch 47.4% 9008 06-29-17
45 Chao_Fan 46.5% 9163 06-29-17
46 mauserman 45.4% 9352 06-29-17
47 Quartz 45.4% 9354 06-29-17
48 teamblackarms 44.6% 9492 06-29-17
49 James_Bertolli 43.5% 9681 06-29-17
50 Psyknux 43.4% 9684 06-29-17
51 NintenDan 43.1% 9747 06-29-17
52 Webber3000 42.6% 9825 06-29-17
53 Turbos 42.5% 9851 06-29-17
54 Cream147 42.0% 9925 06-29-17
54 Ring Rush 42.0% 9925 06-29-17
56 videogamemaster777 41.9% 9951 06-29-17
57 Siavash Tazari 41.8% 9973 06-29-17
58 Fr3nZy 41.5% 10014 06-29-17
59 buddychaos0415 41.1% 10090 06-29-17
60 SadisticMystic 40.5% 10194 06-29-17
61 eggFL 39.9% 10296 06-29-17
62 SB737 38.2% 10578 06-29-17
63 supersonic465 37.5% 10703 06-29-17
64 supersonicfan 37.2% 10758 06-29-17
65 FuzZerd 35.9% 10982 06-29-17
66 Aitamen 35.4% 11055 06-29-17
67 elecmouse101 35.1% 11115 06-29-17
68 BigAL49 35.0% 11123 06-29-17
69 danieldude 34.9% 11145 06-29-17
70 metanightmare22 33.9% 11322 06-29-17
71 Cyan Ryan 33.7% 11354 06-29-17
72 Austinf 33.5% 11379 06-29-17
73 dabestgamer 33.4% 11397 06-29-17
74 MiStEr_ShAoLiN 33.3% 11417 06-29-17
75 Andrea Ritsu 32.5% 11565 06-29-17
76 itsPersonnal 31.8% 11670 06-29-17
77 Cybrax 31.2% 11781 06-29-17
78 SilvertheAlmighty 31.1% 11790 06-29-17
79 Nim 30.6% 11891 06-29-17
80 VMU Player Banned 29.1% 12141 06-29-17
81 Staf 29.0% 12159 06-29-17
82 ethmar 28.8% 12194 06-29-17
83 Omega Rafael Santos 28.6% 12230 06-29-17
84 JamminX42 28.5% 12240 06-29-17
85 The T 28.5% 12249 06-29-17
86 EngiNerd 28.3% 12276 06-29-17
87 lordmetalsonic 27.8% 12364 06-29-17
88 welldooder64 27.2% 12473 06-29-17
89 Hipertails12 27.0% 12501 06-29-17
90 GreatStar 26.9% 12521 06-29-17
91 The Great Lord Mick 26.8% 12528 06-29-17
92 Sondow 26.8% 12543 06-29-17
93 LinksDarkArrows 26.6% 12573 06-29-17
94 Mastakirby 26.5% 12585 06-29-17
95 Skylace 25.5% 12760 06-29-17
96 a_moustache 24.3% 12968 06-29-17
97 Rolken 24.1% 12999 06-29-17
98 Kogen Player Banned 22.4% 13293 06-29-17
99 Spinballwizard 22.4% 13294 06-29-17
100 Xia 22.4% 13296 06-29-17
101 Twilisailor 21.9% 13371 06-29-17
102 f0rever_zer0 21.8% 13385 06-29-17
103 Cutiefox 21.7% 13416 06-29-17
104 Don 21.4% 13458 06-29-17
105 Game_Complete 21.3% 13473 06-29-17
106 Miles9999 21.2% 13494 06-29-17
107 andres430 21.0% 13524 06-29-17
108 Cruizer 20.7% 13576 06-29-17
109 iSonicKid2K 20.7% 13582 06-29-17
110 SADXTryHard 20.3% 13652 06-29-17
111 GarnetPrincess 19.9% 13711 06-29-17
112 AxlThunder 19.0% 13871 06-29-17
113 knuckles_sonic8 18.7% 13925 06-29-17
114 The Knuckles Chao 18.4% 13966 06-29-17
115 KinkyCadence 18.3% 13989 06-29-17
116 Team_Yoshi 18.0% 14049 06-29-17
117 Termon 17.9% 14062 06-29-17
118 LittleBigness 17.9% 14064 06-29-17
119 FoxBoy 17.7% 14091 06-29-17
120 SonicWinDX 17.6% 14107 06-29-17
121 Drakodan 16.8% 14241 06-29-17
122 Sonic Singularity 16.1% 14370 06-29-17
123 Pokemonmaster888 15.8% 14425 06-29-17
124 MPit08 14.7% 14609 06-29-17
125 SilverSonic 14.7% 14612 06-29-17
126 WeegeeZV 14.3% 14678 06-29-17
127 koinu93 14.3% 14680 06-29-17
128 Mo Player Banned 14.1% 14708 06-29-17
129 HyperSonic64 13.9% 14751 06-29-17
130 booo95 13.7% 14778 06-29-17
131 Cod4Scopes 13.7% 14788 06-29-17
132 Chawkk 13.5% 14818 06-29-17
133 paulie9990 13.5% 14820 06-29-17
134 Jerzia 13.4% 14823 06-29-17
135 SuperSonic101 13.2% 14866 06-29-17
136 N 13.2% 14870 06-29-17
137 Maxinfamily 13.1% 14885 06-29-17
138 Hunters13 13.0% 14895 06-29-17
139 LilZero 12.8% 14936 06-29-17
140 Kanimayo_Jp 12.6% 14960 06-29-17
141 BrokenArthritis 12.5% 14986 06-29-17
142 PsyBorg 12.4% 14998 06-29-17
143 Flying Fox 12.3% 15012 06-29-17
144 sonicspeed 12.1% 15058 06-29-17
145 Therio 12.0% 15070 06-29-17
146 douglas 12.0% 15077 06-29-17
147 Matt_TY 11.6% 15140 06-29-17
148 thewaytodawnnn 11.4% 15171 06-29-17
149 Cooljay 11.0% 15236 06-29-17
150 SeaWolf 10.8% 15284 06-29-17
151 SuperBlitzCraig 10.7% 15291 06-29-17
152 joecoolgames 10.7% 15298 06-29-17
153 videogamer1014 10.6% 15312 06-29-17
154 AC-Tygo 10.4% 15346 06-29-17
155 welshmoose05 10.3% 15362 06-29-17
156 OddCook 10.2% 15388 06-29-17
157 crazy1993 10.0% 15410 06-29-17
158 TFEC Headshot 9.9% 15428 06-29-17
159 Mcshuggets 9.7% 15465 06-29-17
160 niscool 9.6% 15486 06-29-17
161 Irregular Zero 9.3% 15535 06-29-17
162 nuckrieg 9.3% 15541 06-29-17
163 SonicAD 9.2% 15543 06-29-17
164 Mariobutch 9.2% 15550 06-29-17
165 Shadowthegreat 9.2% 15555 06-29-17
166 superjupi 9.2% 15558 06-29-17
167 SirTobbii 9.1% 15565 06-29-17
168 sonamyfan666 8.9% 15605 06-29-17
169 iarebored 8.7% 15632 06-29-17
170 SonicKnuckles 8.7% 15634 06-29-17
171 Powerjohn25 8.7% 15640 06-29-17
172 SaviourDC 8.6% 15652 06-29-17
173 adf 8.3% 15698 06-29-17
174 Werey 8.3% 15709 06-29-17
175 Megaman EXE565 8.1% 15736 06-29-17
176 Platformer 7.6% 15817 06-29-17
177 timpkmn89 7.6% 15823 06-29-17
178 ArcticDragon 7.6% 15833 06-29-17
179 wheatrich 7.5% 15841 06-29-17
180 Swift Hobo 7.4% 15865 06-29-17
181 FocusSight64 7.3% 15868 06-29-17
182 KitsuneYamaro 7.2% 15901 06-29-17
183 Rickyman48 7.1% 15904 06-29-17
184 Triseena 7.0% 15931 06-29-17
185 dShadow 6.7% 15985 06-29-17
186 Destroyer121121 6.6% 15997 06-29-17
187 CyberShadow 6.5% 16006 06-29-17
188 slade23 6.5% 16008 06-29-17
189 Starlight Sable 6.5% 16014 06-29-17
190 IsisDazs 6.4% 16039 06-29-17
191 BlankTH 6.2% 16066 06-29-17
192 Monkeh 6.2% 16071 06-29-17
193 SonicU260 6.0% 16100 06-29-17
194 Badlex727 5.9% 16113 06-29-17
194 Redd 5.9% 16113 06-29-17
196 Richied 5.9% 16120 06-29-17
197 DaDude 5.8% 16141 06-29-17
198 Swinkly 5.7% 16155 06-29-17
199 Zip 5.7% 16159 06-29-17
200 Vicklaw 5.6% 16164 06-29-17
201 sonicd5 5.6% 16169 06-29-17
202 ALundstrom10 5.3% 16223 06-29-17
203 tal39h 5.2% 16234 06-29-17
204 VeritasDL 5.1% 16246 06-29-17
205 Kirbymon30 5.1% 16256 06-29-17
206 soniccoloursunleashed 5.0% 16265 06-29-17
207 Drflash55 5.0% 16275 06-29-17
208 Bass 5.0% 16277 06-29-17
209 neaolas 4.8% 16307 06-29-17
210 superiorsonic 4.8% 16309 06-29-17
211 zapp 4.7% 16319 06-29-17
212 Yish 4.7% 16324 06-29-17
213 UninspiredUsername 4.6% 16337 06-29-17
214 Sonicsuperstar1 4.6% 16344 06-29-17
215 gamefreak1292 4.5% 16356 06-29-17
216 Chaos_Overlord 4.2% 16404 06-29-17
217 TakaRikka 4.1% 16428 06-29-17
218 Valfore 4.0% 16437 06-29-17
219 ShinigamiMachine 3.8% 16472 06-29-17
220 Regano1000 3.8% 16476 06-29-17
221 MK 3.7% 16492 06-29-17
222 Ace747 3.6% 16508 06-29-17
223 Illidan 3.2% 16584 06-29-17
224 HHNNBBHHN 3.2% 16585 06-29-17
225 Venick409 3.1% 16591 06-29-17
226 Sithwarrior26 3.1% 16593 06-29-17
227 nman36 3.1% 16595 06-29-17
227 Brian_pso 3.1% 16595 06-29-17
229 Egor305 3.0% 16610 06-29-17
230 SkyBon 3.0% 16611 06-29-17
231 TheChaosEmeraIds 2.9% 16622 06-29-17
232 ingx24 2.9% 16623 06-29-17
233 dekki1234 2.9% 16627 06-29-17
234 Nickson98 2.9% 16630 06-29-17
235 Fozer 2.9% 16639 06-29-17
236 Colomb_30 2.8% 16642 06-29-17
237 FSSRandomvids 2.8% 16651 06-29-17
238 Aiko 2.7% 16660 06-29-17
239 sonic29887 2.7% 16668 06-29-17
240 TheUltraBlur 2.6% 16675 06-29-17
241 1stKirbyever 2.6% 16681 06-29-17
242 TimTH 2.5% 16695 06-29-17
243 Th4tN1nj4Turtl3 2.4% 16715 06-29-17
244 ieatatsonic 2.3% 16727 06-29-17
244 Cort_pso 2.3% 16727 06-29-17
246 Mariosonic15 2.3% 16734 06-29-17
247 Doom-9 2.3% 16740 06-29-17
248 Artie 2.2% 16749 06-29-17
249 HermitHelmet 2.1% 16760 06-29-17
249 MStitomix 2.1% 16760 06-29-17
251 Got4n 2.1% 16776 06-29-17
252 SuperSonic71087 2.0% 16780 06-29-17
253 Jose_15 2.0% 16788 06-29-17
254 Questionguy555 1.9% 16800 06-29-17
255 djmat 1.9% 16810 06-29-17
255 SuperSonicfan9595 1.9% 16810 06-29-17
257 Heroes_Hater 1.7% 16829 06-29-17
258 sonicandamy Player Banned 1.7% 16834 06-29-17
259 LancexExWx 1.7% 16839 06-29-17
260 Paixii 1.7% 16840 06-29-17
261 son1cgu1tar 1.7% 16843 06-29-17
262 Mankster101 1.6% 16856 06-29-17
262 BallzeH 1.6% 16856 06-29-17
264 BecauseWarAnvil 1.6% 16859 06-29-17
265 Jamixesa 1.5% 16866 06-29-17
266 SpiritDragon1995 1.5% 16876 06-29-17
267 Crydio 1.4% 16880 06-29-17
268 Shanekilz 1.4% 16881 06-29-17
269 MarewBFN 1.4% 16894 06-29-17
270 stanski 1.3% 16899 06-29-17
271 Sonique Hedgehog 1.3% 16901 06-29-17
272 p0ker 1.3% 16911 06-29-17
273 Blue Infamy 1.2% 16915 06-29-17
274 ErrortheCucco 1.2% 16926 06-29-17
275 Rikum22 1.2% 16929 06-29-17
276 Arthas 1.2% 16930 06-29-17
277 sonic1001 1.1% 16937 06-29-17
278 AJSIV 1.1% 16942 06-29-17
278 WingedInsignia 1.1% 16942 06-29-17
280 syco1098 1.1% 16944 06-29-17
281 Sonic the Hedgehod16 1.1% 16946 06-29-17
282 ASINISTERTACO 1.0% 16954 06-29-17
283 Calfd 1.0% 16957 06-29-17
284 sonicfan9 1.0% 16958 06-29-17
285 BlackArmsShadow 0.9% 16967 06-29-17
286 themachoman202 0.9% 16969 06-29-17
287 darkstarblaze 0.9% 16971 06-29-17
288 shadowblast63 Player Banned 0.9% 16975 06-29-17
289 Greham Adelphis 0.9% 16977 06-29-17
290 Fivavoa 0.9% 16978 06-29-17
291 MastaToken 0.9% 16980 06-29-17
291 Mr. Jones 0.9% 16980 06-29-17
293 Ben1502 0.8% 16982 06-29-17
294 arcfx1985 0.8% 16983 06-29-17
295 ptorflaxendrosis 0.8% 16984 06-29-17
296 TommyeAsY 0.8% 16986 06-29-17
297 Gvozdevik 0.8% 16990 06-29-17
297 FlandreScarlet9999vr 0.8% 16990 06-29-17
299 Knuckles 0.8% 16991 06-29-17
300 Zeldocto 0.8% 16993 06-29-17
301 BeeAwwb 0.8% 16995 06-29-17
301 KaM Mark MaK 0.8% 16995 06-29-17
303 ShadouZaHejjihoggu 0.7% 17003 06-29-17
304 Sarger001 0.7% 17008 06-29-17
305 dragondragon18 0.7% 17011 06-29-17
305 Sonic62 0.7% 17011 06-29-17
307 Sonic The Star 0.7% 17012 06-29-17
308 darkersupershadic 0.7% 17013 06-29-17
309 SonicK100 0.6% 17018 06-29-17
309 Shadygamerfreak 0.6% 17018 06-29-17
309 Grady219 0.6% 17018 06-29-17
312 BioShadow 0.6% 17019 06-29-17
313 Sogeking 0.6% 17020 06-29-17
314 Jawaah 0.6% 17025 06-29-17
315 Antek 0.6% 17028 06-29-17
316 Klaus 0.6% 17030 06-29-17
317 SilverK 0.6% 17031 06-29-17
318 SpinDashMaster 0.5% 17039 06-29-17
319 Videogamer123 0.5% 17040 06-29-17
320 isaihtb11 0.4% 17055 06-29-17
320 oTaiIilLsS 0.4% 17055 06-29-17
322 zaktu40 0.4% 17058 06-29-17
323 OhNoes! 0.4% 17059 06-29-17
324 S-MS32X-S 0.4% 17062 06-29-17
324 gaara1234 0.4% 17062 06-29-17
326 gamed00d 0.4% 17063 06-29-17
326 Mad Andy 0.4% 17063 06-29-17
328 Mister_Slick 0.3% 17074 06-29-17
329 Sonic06Fan 0.3% 17077 06-29-17
330 Rush Hero 0.3% 17078 06-29-17
331 SonicMega167 0.3% 17083 06-29-17
332 Iwannabelink 0.2% 17085 06-29-17
333 sonknuck23 0.2% 17088 06-29-17
334 DanielTheFalcon 0.2% 17098 06-29-17
335 gamer1245 0.2% 17099 06-29-17
336 Burningskull123 0.1% 17102 06-29-17
337 Sonicontherun 0.1% 17113 06-29-17
338 Lil_Dude 0.1% 17118 06-29-17
339 antiwwe 0.0% 17119 06-29-17
340 Tyrouble 0.0% 17121 06-29-17
341 Genuine Hedgehog 0.0% 17122 06-29-17
341 SonataSpinDash 0.0% 17122 06-29-17
343 Cbwade15 0.0% 17126 06-29-17
344 Over 0.0% 17136 06-29-17
344 Tran Sonic Fan Player Banned 0.0% 17136 06-29-17
344 sdj6707 Player Banned 0.0% 17136 06-29-17
344 neji_hyuuga 0.0% 17136 06-29-17
344 MegabombBlade 0.0% 17136 06-29-17

This page is using the New Data Table System. [FUTURE]

Game ID: 3 | Category ID: 10
Hits: 70,150 | Hits This Month: 117 | DB Calls: 21 | Mem Usage: 5.48 MB | Time: 0.13s | Printable

The Sonic Center v3.9
Copyright 2003-2011 by The Sonic Center Team.